createdAt,value
2022-12-17T00:00:28.089Z,-2.30
2022-12-17T00:03:18.039Z,-2.30
2022-12-17T00:06:04.211Z,-2.30
2022-12-17T00:08:50.300Z,-2.30
2022-12-17T00:11:35.752Z,-2.40
2022-12-17T00:14:21.346Z,-2.40
2022-12-17T00:17:06.890Z,-2.40
2022-12-17T00:19:52.373Z,-2.40
2022-12-17T00:22:42.049Z,-2.40
2022-12-17T00:25:27.508Z,-2.40
2022-12-17T00:28:13.048Z,-2.50
2022-12-17T00:30:58.467Z,-2.50
2022-12-17T00:33:44.192Z,-2.50
2022-12-17T00:36:29.631Z,-2.50
2022-12-17T00:39:15.312Z,-2.50
2022-12-17T00:42:00.869Z,-2.50
2022-12-17T00:44:46.005Z,-2.50
2022-12-17T00:47:31.453Z,-2.50
2022-12-17T00:50:16.761Z,-2.50
2022-12-17T00:53:02.404Z,-2.50
2022-12-17T00:55:47.922Z,-2.50
2022-12-17T00:58:33.447Z,-2.60
2022-12-17T01:01:19.386Z,-2.60
2022-12-17T01:04:05.238Z,-2.50
2022-12-17T01:06:50.557Z,-2.60
2022-12-17T01:09:36.115Z,-2.60
2022-12-17T01:12:21.421Z,-2.60
2022-12-17T01:15:07.069Z,-2.60
2022-12-17T01:17:52.712Z,-2.60
2022-12-17T01:20:41.775Z,-2.60
2022-12-17T01:23:27.549Z,-2.60
2022-12-17T01:26:13.861Z,-2.60
2022-12-17T01:29:16.178Z,-2.60
2022-12-17T01:32:01.700Z,-2.70
2022-12-17T01:34:47.170Z,-2.70
2022-12-17T01:37:32.949Z,-2.70
2022-12-17T01:40:18.580Z,-2.80
2022-12-17T01:43:07.134Z,-2.80
2022-12-17T01:46:02.056Z,-2.80
2022-12-17T01:48:57.659Z,-2.80
2022-12-17T01:51:43.578Z,-2.80
2022-12-17T01:54:40.628Z,-2.80
2022-12-17T01:57:28.350Z,-2.80
2022-12-17T02:00:19.733Z,-2.80
2022-12-17T02:03:05.250Z,-2.80
2022-12-17T02:05:52.988Z,-2.80
2022-12-17T02:08:44.627Z,-2.80
2022-12-17T02:11:45.449Z,-2.80
2022-12-17T02:14:37.059Z,-2.80
2022-12-17T02:17:25.515Z,-2.90
2022-12-17T02:20:20.071Z,-2.80
2022-12-17T02:23:29.492Z,-2.80
2022-12-17T02:26:15.663Z,-2.80
2022-12-17T02:29:05.934Z,-2.80
2022-12-17T02:31:52.575Z,-2.70
2022-12-17T02:34:38.509Z,-2.70
2022-12-17T02:37:24.133Z,-2.80
2022-12-17T02:40:10.215Z,-2.80
2022-12-17T02:42:56.258Z,-2.80
2022-12-17T02:45:43.032Z,-2.80
2022-12-17T02:48:28.575Z,-2.70
2022-12-17T02:51:14.704Z,-2.70
2022-12-17T02:54:03.978Z,-2.70
2022-12-17T02:56:51.002Z,-2.70
2022-12-17T02:59:36.886Z,-2.70
2022-12-17T03:02:30.245Z,-2.70
2022-12-17T03:05:43.381Z,-2.70
2022-12-17T03:08:21.483Z,-2.80
2022-12-17T03:11:06.956Z,-2.80
2022-12-17T03:13:52.245Z,-2.80
2022-12-17T03:16:38.325Z,-2.80
2022-12-17T03:19:24.012Z,-2.70
2022-12-17T03:22:09.505Z,-2.70
2022-12-17T03:24:54.918Z,-2.70
2022-12-17T03:27:40.566Z,-2.70
2022-12-17T03:30:26.252Z,-2.70
2022-12-17T03:33:12.034Z,-2.70
2022-12-17T03:35:57.709Z,-2.70
2022-12-17T03:38:43.177Z,-2.60
2022-12-17T03:41:28.746Z,-2.60
2022-12-17T03:44:14.179Z,-2.60
2022-12-17T03:46:59.769Z,-2.60
2022-12-17T03:49:45.474Z,-2.60
2022-12-17T03:52:31.148Z,-2.60
2022-12-17T03:55:17.874Z,-2.60
2022-12-17T03:58:03.348Z,-2.60
2022-12-17T04:00:48.769Z,-2.60
2022-12-17T04:03:34.875Z,-2.60
2022-12-17T04:06:20.661Z,-2.60
2022-12-17T04:09:06.307Z,-2.60
2022-12-17T04:11:51.626Z,-2.60
2022-12-17T04:14:37.213Z,-2.60
2022-12-17T04:17:22.688Z,-2.60
2022-12-17T04:20:08.123Z,-2.60
2022-12-17T04:22:53.854Z,-2.60
2022-12-17T04:25:39.184Z,-2.60
2022-12-17T04:28:24.699Z,-2.60
2022-12-17T04:31:10.409Z,-2.60
2022-12-17T04:33:56.026Z,-2.60
2022-12-17T04:36:41.727Z,-2.60
2022-12-17T04:39:26.948Z,-2.60
2022-12-17T04:42:12.441Z,-2.60
2022-12-17T04:44:57.908Z,-2.70
2022-12-17T04:47:50.811Z,-2.70
2022-12-17T04:50:36.052Z,-2.70
2022-12-17T04:53:22.201Z,-2.70
2022-12-17T04:56:07.603Z,-2.70
2022-12-17T04:58:53.130Z,-2.70
2022-12-17T05:01:39.315Z,-2.70
2022-12-17T05:04:24.840Z,-2.70
2022-12-17T05:07:10.283Z,-2.70
2022-12-17T05:09:55.788Z,-2.70
2022-12-17T05:12:41.933Z,-2.70
2022-12-17T05:15:52.721Z,-2.70
2022-12-17T05:18:38.578Z,-2.70
2022-12-17T05:21:24.438Z,-2.60
2022-12-17T05:24:09.643Z,-2.70
2022-12-17T05:26:54.818Z,-2.70
2022-12-17T05:29:42.754Z,-2.70
2022-12-17T05:32:28.001Z,-2.70
2022-12-17T05:35:13.535Z,-2.70
2022-12-17T05:37:58.812Z,-2.70
2022-12-17T05:40:44.454Z,-2.80
2022-12-17T05:43:31.011Z,-2.80
2022-12-17T05:46:17.673Z,-2.80
2022-12-17T05:49:03.182Z,-2.90
2022-12-17T05:51:48.625Z,-2.90
2022-12-17T05:54:34.248Z,-2.90
2022-12-17T05:57:19.812Z,-2.90
2022-12-17T06:00:05.217Z,-3.00
2022-12-17T06:02:57.617Z,-3.00
2022-12-17T06:05:43.377Z,-3.00
2022-12-17T06:08:28.836Z,-3.00
2022-12-17T06:11:16.936Z,-3.00
2022-12-17T06:14:02.464Z,-2.90
2022-12-17T06:16:47.971Z,-2.90
2022-12-17T06:19:33.693Z,-2.90
2022-12-17T06:22:19.851Z,-2.90
2022-12-17T06:25:05.245Z,-2.90
2022-12-17T06:27:50.778Z,-2.90
2022-12-17T06:30:36.069Z,-2.90
2022-12-17T06:33:24.823Z,-2.90
2022-12-17T06:36:10.962Z,-2.90
2022-12-17T06:38:56.303Z,-2.90
2022-12-17T06:41:41.861Z,-2.90
2022-12-17T06:44:27.567Z,-2.90
2022-12-17T06:47:13.222Z,-2.90
2022-12-17T06:50:01.480Z,-2.90
2022-12-17T06:52:47.402Z,-2.90
2022-12-17T06:55:32.926Z,-3.00
2022-12-17T06:58:18.533Z,-2.90
2022-12-17T07:01:05.125Z,-2.90
2022-12-17T07:03:54.139Z,-2.90
2022-12-17T07:06:43.098Z,-2.90
2022-12-17T07:09:29.946Z,-3.00
2022-12-17T07:12:15.493Z,-2.90
2022-12-17T07:15:01.200Z,-2.90
2022-12-17T07:17:46.612Z,-2.90
2022-12-17T07:20:32.140Z,-2.90
2022-12-17T07:23:17.746Z,-2.90
2022-12-17T07:26:03.256Z,-2.90
2022-12-17T07:28:48.787Z,-2.90
2022-12-17T07:31:38.660Z,-2.90
2022-12-17T07:34:24.089Z,-2.90
2022-12-17T07:37:09.507Z,-2.80
2022-12-17T07:39:54.625Z,-2.80
2022-12-17T07:42:40.160Z,-2.80
2022-12-17T07:45:26.372Z,-2.80
2022-12-17T07:48:14.342Z,-2.80
2022-12-17T07:50:59.917Z,-2.90
2022-12-17T07:53:53.027Z,-2.80
2022-12-17T07:56:38.575Z,-2.80
2022-12-17T07:59:24.040Z,-2.80
2022-12-17T08:02:10.844Z,-2.80
2022-12-17T08:04:56.371Z,-2.80
2022-12-17T08:07:41.803Z,-2.90
2022-12-17T08:10:47.188Z,-2.80
2022-12-17T08:13:32.736Z,-2.80
2022-12-17T08:16:18.232Z,-2.80
2022-12-17T08:19:09.416Z,-2.80
2022-12-17T08:21:55.391Z,-2.80
2022-12-17T08:24:41.733Z,-2.80
2022-12-17T08:27:27.911Z,-2.70
2022-12-17T08:30:13.715Z,-2.80
2022-12-17T08:32:58.781Z,-2.80
2022-12-17T08:35:44.243Z,-2.70
2022-12-17T08:38:29.499Z,-2.70
2022-12-17T08:41:15.457Z,-2.70
2022-12-17T08:44:00.961Z,-2.70
2022-12-17T08:46:46.588Z,-2.70
2022-12-17T08:49:32.240Z,-2.70
2022-12-17T08:52:25.904Z,-2.70
2022-12-17T08:55:11.707Z,-2.70
2022-12-17T08:57:57.777Z,-2.70
2022-12-17T09:00:47.923Z,-2.70
2022-12-17T09:03:34.414Z,-2.70
2022-12-17T09:06:21.145Z,-2.70
2022-12-17T09:09:20.190Z,-2.70
2022-12-17T09:12:14.640Z,-2.70
2022-12-17T09:15:02.823Z,-2.60
2022-12-17T09:17:48.474Z,-2.60
2022-12-17T09:20:34.015Z,-2.60
2022-12-17T09:23:19.498Z,-2.60
2022-12-17T09:26:10.627Z,-2.60
2022-12-17T09:28:56.179Z,-2.60
2022-12-17T09:31:42.385Z,-2.50
2022-12-17T09:34:27.930Z,-2.50
2022-12-17T09:37:13.461Z,-2.50
2022-12-17T09:39:59.088Z,-2.50
2022-12-17T09:43:11.166Z,-2.50
2022-12-17T09:46:05.434Z,-2.50
2022-12-17T09:49:04.188Z,-2.40
2022-12-17T09:51:52.097Z,-2.40
2022-12-17T09:54:44.775Z,-2.40
2022-12-17T09:57:56.262Z,-2.40
2022-12-17T10:00:43.195Z,-2.40
2022-12-17T10:03:43.926Z,-2.40
2022-12-17T10:06:54.785Z,-2.40
2022-12-17T10:09:40.222Z,-2.30
2022-12-17T10:12:51.270Z,-2.30
2022-12-17T10:15:36.754Z,-2.30
2022-12-17T10:18:27.757Z,-2.20
2022-12-17T10:21:31.393Z,-2.20
2022-12-17T10:24:23.779Z,-2.20
2022-12-17T10:27:09.383Z,-2.10
2022-12-17T10:29:58.825Z,-2.10
2022-12-17T10:33:09.898Z,-2.10
2022-12-17T10:35:55.883Z,-2.10
2022-12-17T10:38:42.545Z,-2.00
2022-12-17T10:41:44.297Z,-2.00
2022-12-17T10:44:42.256Z,-1.90
2022-12-17T10:47:35.157Z,-1.90
2022-12-17T10:50:30.074Z,-1.90
2022-12-17T10:53:18.292Z,-1.80
2022-12-17T10:56:22.262Z,-1.80
2022-12-17T10:59:09.435Z,-1.70
2022-12-17T11:01:56.004Z,-1.70
2022-12-17T11:04:42.035Z,-1.70
2022-12-17T11:07:29.264Z,-1.60
2022-12-17T11:10:16.753Z,-1.60
2022-12-17T11:13:05.149Z,-1.60
2022-12-17T11:15:52.365Z,-1.50
2022-12-17T11:18:50.771Z,-1.40
2022-12-17T11:21:48.664Z,-1.40
2022-12-17T11:24:41.224Z,-1.30
2022-12-17T11:27:28.662Z,-1.30
2022-12-17T11:30:14.701Z,-1.30
2022-12-17T11:33:06.919Z,-1.30
2022-12-17T11:35:58.913Z,-1.30
2022-12-17T11:38:54.807Z,-1.20
2022-12-17T11:42:09.530Z,-1.20
2022-12-17T11:45:03.219Z,-1.10
2022-12-17T11:48:08.825Z,-1.10
2022-12-17T11:50:59.901Z,-1.10
2022-12-17T11:53:45.559Z,-1.00
2022-12-17T11:56:39.294Z,-1.00
2022-12-17T11:59:50.982Z,-1.00
2022-12-17T12:02:58.130Z,-0.90
2022-12-17T12:05:56.812Z,-0.90
2022-12-17T12:08:50.355Z,-0.90
2022-12-17T12:11:51.610Z,-0.80
2022-12-17T12:14:49.488Z,-0.80
2022-12-17T12:17:41.402Z,-0.70
2022-12-17T12:20:27.412Z,-0.70
2022-12-17T12:23:27.966Z,-0.70
2022-12-17T12:26:22.115Z,-0.60
2022-12-17T12:29:15.847Z,-0.70
2022-12-17T12:32:04.266Z,-0.60
2022-12-17T12:34:59.148Z,-0.60
2022-12-17T12:37:45.837Z,-0.60
2022-12-17T12:40:34.560Z,-0.50
2022-12-17T12:43:48.718Z,-0.50
2022-12-17T12:46:44.843Z,-0.50
2022-12-17T12:49:49.273Z,-0.50
2022-12-17T12:52:41.052Z,-0.40
2022-12-17T12:55:26.360Z,-0.50
2022-12-17T12:58:15.059Z,-0.40
2022-12-17T13:01:07.205Z,-0.40
2022-12-17T13:03:53.884Z,-0.40
2022-12-17T13:06:39.415Z,-0.40
2022-12-17T13:09:33.822Z,-0.40
2022-12-17T13:12:04.817Z,-0.40
2022-12-17T13:14:34.939Z,-0.30
2022-12-17T13:17:07.321Z,-0.30
2022-12-17T13:19:42.783Z,-0.30
2022-12-17T13:22:23.334Z,-0.30
2022-12-17T13:24:54.227Z,-0.30
2022-12-17T13:27:27.389Z,-0.30
2022-12-17T13:29:56.419Z,-0.30
2022-12-17T13:32:28.715Z,-0.30
2022-12-17T13:35:14.639Z,-0.30
2022-12-17T13:38:08.694Z,-0.30
2022-12-17T13:40:45.104Z,-0.30
2022-12-17T13:43:22.261Z,-0.20
2022-12-17T13:45:52.670Z,-0.20
2022-12-17T13:48:21.487Z,-0.30
2022-12-17T13:51:06.895Z,-0.30
2022-12-17T13:53:34.985Z,-0.30
2022-12-17T13:56:05.701Z,-0.30
2022-12-17T13:58:40.369Z,-0.40
2022-12-17T14:01:14.751Z,-0.40
2022-12-17T14:04:08.069Z,-0.40
2022-12-17T14:06:37.766Z,-0.40
2022-12-17T14:09:05.318Z,-0.40
2022-12-17T14:11:51.987Z,-0.40
2022-12-17T14:14:28.844Z,-0.40
2022-12-17T14:16:55.909Z,-0.40
2022-12-17T14:19:24.358Z,-0.40
2022-12-17T14:21:51.655Z,-0.40
2022-12-17T14:24:21.081Z,-0.40
2022-12-17T14:26:51.607Z,-0.50
2022-12-17T14:29:25.670Z,-0.50
2022-12-17T14:31:57.145Z,-0.50
2022-12-17T14:34:24.679Z,-0.50
2022-12-17T14:36:59.678Z,-0.50
2022-12-17T14:39:30.831Z,-0.50
2022-12-17T14:42:32.493Z,-0.60
2022-12-17T14:45:00.820Z,-0.60
2022-12-17T14:47:29.213Z,-0.60
2022-12-17T14:49:56.139Z,-0.60
2022-12-17T14:52:35.444Z,-0.60
2022-12-17T14:55:21.317Z,-0.60
2022-12-17T14:57:48.955Z,-0.60
2022-12-17T15:00:15.922Z,-0.70
2022-12-17T15:02:44.311Z,-0.70
2022-12-17T15:05:15.257Z,-0.70
2022-12-17T15:07:42.165Z,-0.80
2022-12-17T15:10:10.596Z,-0.80
2022-12-17T15:12:37.784Z,-0.80
2022-12-17T15:15:04.867Z,-0.90
2022-12-17T15:17:31.862Z,-0.90
2022-12-17T15:19:58.662Z,-0.90
2022-12-17T15:22:25.701Z,-1.00
2022-12-17T15:24:52.884Z,-1.00
2022-12-17T15:27:19.881Z,-1.00
2022-12-17T15:29:46.796Z,-1.00
2022-12-17T15:32:17.637Z,-1.00
2022-12-17T15:34:44.905Z,-1.00
2022-12-17T15:37:13.864Z,-1.00
2022-12-17T15:39:45.421Z,-1.10
2022-12-17T15:42:31.092Z,-1.10
2022-12-17T15:44:57.994Z,-1.10
2022-12-17T15:47:24.785Z,-1.10
2022-12-17T15:49:51.570Z,-1.20
2022-12-17T15:52:18.361Z,-1.20
2022-12-17T15:54:45.169Z,-1.20
2022-12-17T15:57:18.272Z,-1.20
2022-12-17T15:59:45.744Z,-1.20
2022-12-17T16:02:12.889Z,-1.20
2022-12-17T16:04:40.886Z,-1.20
2022-12-17T16:07:07.671Z,-1.20
2022-12-17T16:09:35.659Z,-1.20
2022-12-17T16:12:02.455Z,-1.30
2022-12-17T16:14:29.266Z,-1.30
2022-12-17T16:16:56.058Z,-1.30
2022-12-17T16:19:22.828Z,-1.30
2022-12-17T16:21:49.903Z,-1.30
2022-12-17T16:24:16.631Z,-1.30
2022-12-17T16:26:43.525Z,-1.30
2022-12-17T16:29:10.279Z,-1.30
2022-12-17T16:31:37.400Z,-1.40
2022-12-17T16:34:07.641Z,-1.40
2022-12-17T16:36:34.660Z,-1.30
2022-12-17T16:39:01.556Z,-1.40
2022-12-17T16:41:28.390Z,-1.40
2022-12-17T16:43:55.481Z,-1.40
2022-12-17T16:46:27.304Z,-1.40
2022-12-17T16:48:54.448Z,-1.40
2022-12-17T16:51:28.421Z,-1.40
2022-12-17T16:53:57.836Z,-1.40
2022-12-17T16:56:28.239Z,-1.40
2022-12-17T16:58:55.301Z,-1.50
2022-12-17T17:01:23.604Z,-1.50
2022-12-17T17:03:50.515Z,-1.50
2022-12-17T17:06:18.338Z,-1.60
2022-12-17T17:08:45.341Z,-1.60
2022-12-17T17:11:12.303Z,-1.60
2022-12-17T17:13:39.533Z,-1.60
2022-12-17T17:16:06.833Z,-1.60
2022-12-17T17:18:33.769Z,-1.60
2022-12-17T17:21:13.969Z,-1.70
2022-12-17T17:23:41.095Z,-1.70
2022-12-17T17:26:08.636Z,-1.70
2022-12-17T17:28:36.073Z,-1.70
2022-12-17T17:31:04.838Z,-1.70
2022-12-17T17:33:33.498Z,-1.80
2022-12-17T17:36:04.187Z,-1.80
2022-12-17T17:38:32.711Z,-1.80
2022-12-17T17:40:59.474Z,-1.90
2022-12-17T17:43:26.701Z,-1.90
2022-12-17T17:45:53.437Z,-1.90
2022-12-17T17:48:20.177Z,-1.80
2022-12-17T17:51:00.302Z,-1.80
2022-12-17T17:53:27.402Z,-1.80
2022-12-17T17:55:54.228Z,-1.90
2022-12-17T17:58:21.871Z,-1.90
2022-12-17T18:00:48.736Z,-1.90
2022-12-17T18:03:16.105Z,-1.90
2022-12-17T18:05:45.157Z,-1.80
2022-12-17T18:08:12.292Z,-1.90
2022-12-17T18:10:39.241Z,-1.90
2022-12-17T18:13:24.639Z,-1.90
2022-12-17T18:15:51.455Z,-1.90
2022-12-17T18:18:18.255Z,-1.90
2022-12-17T18:20:45.064Z,-1.90
2022-12-17T18:23:13.057Z,-1.90
2022-12-17T18:25:39.839Z,-2.00
2022-12-17T18:28:06.820Z,-2.00
2022-12-17T18:30:33.615Z,-2.00
2022-12-17T18:33:00.723Z,-2.00
2022-12-17T18:35:27.667Z,-2.00
2022-12-17T18:37:56.612Z,-2.10
2022-12-17T18:40:26.510Z,-2.00
2022-12-17T18:43:14.578Z,-2.10
2022-12-17T18:45:45.043Z,-2.20
2022-12-17T18:48:12.125Z,-2.20
2022-12-17T18:50:40.679Z,-2.20
2022-12-17T18:53:07.438Z,-2.20
2022-12-17T18:55:40.762Z,-2.20
2022-12-17T18:58:08.936Z,-2.30
2022-12-17T19:00:37.934Z,-2.20
2022-12-17T19:03:05.927Z,-2.30
2022-12-17T19:05:32.892Z,-2.20
2022-12-17T19:08:00.751Z,-2.30
2022-12-17T19:10:27.635Z,-2.30
2022-12-17T19:12:54.548Z,-2.30
2022-12-17T19:15:21.293Z,-2.30
2022-12-17T19:17:51.013Z,-2.30
2022-12-17T19:20:18.012Z,-2.30
2022-12-17T19:22:44.795Z,-2.30
2022-12-17T19:25:11.792Z,-2.30
2022-12-17T19:27:38.659Z,-2.30
2022-12-17T19:30:05.873Z,-2.40
2022-12-17T19:32:33.021Z,-2.40
2022-12-17T19:34:59.771Z,-2.40
2022-12-17T19:37:26.552Z,-2.40
2022-12-17T19:39:53.357Z,-2.50
2022-12-17T19:42:33.482Z,-2.40
2022-12-17T19:45:03.876Z,-2.50
2022-12-17T19:47:31.564Z,-2.50
2022-12-17T19:49:58.312Z,-2.50
2022-12-17T19:52:25.175Z,-2.50
2022-12-17T19:54:51.978Z,-2.50
2022-12-17T19:57:18.810Z,-2.50
2022-12-17T19:59:45.659Z,-2.50
2022-12-17T20:02:12.702Z,-2.50
2022-12-17T20:04:40.816Z,-2.50
2022-12-17T20:07:07.635Z,-2.50
2022-12-17T20:09:34.488Z,-2.50
2022-12-17T20:12:01.658Z,-2.50
2022-12-17T20:14:28.951Z,-2.50
2022-12-17T20:16:56.821Z,-2.50
2022-12-17T20:19:25.096Z,-2.50
2022-12-17T20:21:53.594Z,-2.50
2022-12-17T20:24:21.257Z,-2.50
2022-12-17T20:26:51.685Z,-2.50
2022-12-17T20:29:19.389Z,-2.50
2022-12-17T20:31:49.952Z,-2.50
2022-12-17T20:34:18.090Z,-2.50
2022-12-17T20:36:48.037Z,-2.50
2022-12-17T20:39:18.783Z,-2.50
2022-12-17T20:41:51.526Z,-2.50
2022-12-17T20:44:18.355Z,-2.50
2022-12-17T20:46:47.246Z,-2.50
2022-12-17T20:49:14.821Z,-2.50
2022-12-17T20:51:42.112Z,-2.50
2022-12-17T20:54:09.855Z,-2.50
2022-12-17T20:56:38.162Z,-2.50
2022-12-17T20:59:06.250Z,-2.50
2022-12-17T21:01:35.189Z,-2.40
2022-12-17T21:04:02.619Z,-2.50
2022-12-17T21:06:32.531Z,-2.40
2022-12-17T21:08:59.345Z,-2.50
2022-12-17T21:11:26.679Z,-2.40
2022-12-17T21:13:53.793Z,-2.40
2022-12-17T21:16:27.111Z,-2.40
2022-12-17T21:18:55.780Z,-2.40
2022-12-17T21:21:23.906Z,-2.40
2022-12-17T21:23:50.883Z,-2.40
2022-12-17T21:26:19.540Z,-2.50
2022-12-17T21:28:48.604Z,-2.40
2022-12-17T21:31:19.980Z,-2.50
2022-12-17T21:33:47.728Z,-2.50
2022-12-17T21:36:16.404Z,-2.50
2022-12-17T21:38:43.322Z,-2.50
2022-12-17T21:41:12.766Z,-2.40
2022-12-17T21:43:41.178Z,-2.50
2022-12-17T21:46:13.440Z,-2.50
2022-12-17T21:48:42.504Z,-2.50
2022-12-17T21:51:12.206Z,-2.50
2022-12-17T21:53:42.747Z,-2.40
2022-12-17T21:56:11.587Z,-2.40
2022-12-17T21:58:40.414Z,-2.50
2022-12-17T22:01:19.325Z,-2.40
2022-12-17T22:03:47.172Z,-2.50
2022-12-17T22:06:19.193Z,-2.50
2022-12-17T22:08:52.250Z,-2.50
2022-12-17T22:11:25.376Z,-2.50
2022-12-17T22:14:07.400Z,-2.50
2022-12-17T22:16:42.312Z,-2.50
2022-12-17T22:19:10.831Z,-2.50
2022-12-17T22:21:39.618Z,-2.50
2022-12-17T22:24:06.776Z,-2.50
2022-12-17T22:26:36.498Z,-2.50
2022-12-17T22:29:03.478Z,-2.50
2022-12-17T22:31:52.120Z,-2.50
2022-12-17T22:35:14.512Z,-2.50
2022-12-17T22:39:33.100Z,-2.50
2022-12-17T22:44:05.777Z,-2.50
2022-12-17T22:44:38.396Z,-2.50
2022-12-17T22:46:19.535Z,-2.50
2022-12-17T22:48:47.102Z,-2.50
2022-12-17T22:51:16.678Z,-2.60
2022-12-17T22:53:45.397Z,-2.60
2022-12-17T22:56:24.523Z,-2.60
2022-12-17T22:59:00.230Z,-2.60
2022-12-17T23:01:27.269Z,-2.60
2022-12-17T23:03:55.305Z,-2.60
2022-12-17T23:06:25.391Z,-2.60
2022-12-17T23:08:56.543Z,-2.60
2022-12-17T23:11:26.153Z,-2.60
2022-12-17T23:14:20.888Z,-2.60
2022-12-17T23:16:49.861Z,-2.60
2022-12-17T23:19:16.749Z,-2.60
2022-12-17T23:21:44.217Z,-2.60
2022-12-17T23:24:11.167Z,-2.60
2022-12-17T23:26:38.171Z,-2.60
2022-12-17T23:29:17.656Z,-2.70
2022-12-17T23:31:46.402Z,-2.70
2022-12-17T23:34:13.326Z,-2.70
2022-12-17T23:36:42.490Z,-2.70
2022-12-17T23:39:09.372Z,-2.70
2022-12-17T23:41:36.343Z,-2.70
2022-12-17T23:44:03.259Z,-2.70
2022-12-17T23:46:30.853Z,-2.70
2022-12-17T23:48:57.957Z,-2.70
2022-12-17T23:51:24.893Z,-2.70
2022-12-17T23:53:51.843Z,-2.70
2022-12-17T23:56:26.219Z,-2.70
2022-12-17T23:58:56.938Z,-2.80
